createdAt,value
2017-08-28T00:01:22.520Z,89.10
2017-08-28T00:03:49.987Z,88.90
2017-08-28T00:06:17.524Z,89.10
2017-08-28T00:08:45.059Z,89.70
2017-08-28T00:11:12.525Z,90.00
2017-08-28T00:13:39.988Z,89.80
2017-08-28T00:16:07.455Z,89.80
2017-08-28T00:18:34.900Z,89.60
2017-08-28T00:21:02.379Z,89.90
2017-08-28T00:23:29.920Z,90.20
2017-08-28T00:25:57.462Z,90.20
2017-08-28T00:28:25.008Z,90.20
2017-08-28T00:30:52.464Z,90.50
2017-08-28T00:33:19.988Z,90.40
2017-08-28T00:35:47.452Z,90.30
2017-08-28T00:38:14.908Z,90.90
2017-08-28T00:40:42.399Z,90.50
2017-08-28T00:43:09.958Z,90.40
2017-08-28T00:45:37.504Z,90.40
2017-08-28T00:48:05.260Z,90.40
2017-08-28T00:50:32.795Z,90.60
2017-08-28T00:53:01.055Z,90.80
2017-08-28T00:55:28.519Z,91.10
2017-08-28T00:57:55.982Z,91.20
2017-08-28T01:00:23.481Z,90.80
2017-08-28T01:02:51.705Z,91.50
2017-08-28T01:05:19.163Z,91.20
2017-08-28T01:07:46.730Z,91.40
2017-08-28T01:10:14.213Z,91.40
2017-08-28T01:12:41.664Z,91.60
2017-08-28T01:15:09.123Z,91.10
2017-08-28T01:17:36.700Z,91.10
2017-08-28T01:20:04.168Z,91.20
2017-08-28T01:22:31.681Z,91.50
2017-08-28T01:24:59.150Z,91.60
2017-08-28T01:27:26.887Z,91.70
2017-08-28T01:29:54.344Z,91.80
2017-08-28T01:32:21.863Z,91.90
2017-08-28T01:34:49.406Z,91.80
2017-08-28T01:37:16.944Z,92.10
2017-08-28T01:39:44.488Z,92.20
2017-08-28T01:42:12.032Z,92.40
2017-08-28T01:44:39.487Z,92.00
2017-08-28T01:47:06.939Z,92.00
2017-08-28T01:49:34.427Z,92.20
2017-08-28T01:52:01.884Z,92.30
2017-08-28T01:54:29.435Z,92.40
2017-08-28T01:56:56.988Z,92.50
2017-08-28T01:59:24.484Z,92.60
2017-08-28T02:01:51.975Z,92.40
2017-08-28T02:04:19.611Z,92.30
2017-08-28T02:06:47.160Z,92.30
2017-08-28T02:09:14.671Z,92.60
2017-08-28T02:11:42.294Z,92.40
2017-08-28T02:14:09.887Z,92.50
2017-08-28T02:16:37.431Z,92.60
2017-08-28T02:19:04.888Z,92.80
2017-08-28T02:21:32.607Z,93.00
2017-08-28T02:24:00.116Z,93.00
2017-08-28T02:26:27.568Z,92.90
2017-08-28T02:28:55.048Z,93.10
2017-08-28T02:31:22.647Z,93.30
2017-08-28T02:33:50.104Z,93.30
2017-08-28T02:36:17.811Z,93.50
2017-08-28T02:38:45.340Z,93.50
2017-08-28T02:41:12.791Z,93.60
2017-08-28T02:43:40.304Z,93.40
2017-08-28T02:46:07.931Z,93.50
2017-08-28T02:48:35.500Z,93.50
2017-08-28T02:51:02.953Z,93.50
2017-08-28T02:53:30.484Z,93.80
2017-08-28T02:55:58.714Z,94.20
2017-08-28T02:58:26.177Z,94.20
2017-08-28T03:00:53.672Z,94.30
2017-08-28T03:03:21.128Z,93.90
2017-08-28T03:05:48.583Z,94.30
2017-08-28T03:08:16.148Z,94.20
2017-08-28T03:10:43.748Z,94.10
2017-08-28T03:13:11.208Z,94.00
2017-08-28T03:15:38.680Z,94.10
2017-08-28T03:18:06.132Z,94.20
2017-08-28T03:20:33.633Z,94.10
2017-08-28T03:23:01.104Z,94.20
2017-08-28T03:25:28.643Z,94.20
2017-08-28T03:27:56.187Z,94.40
2017-08-28T03:30:23.792Z,94.60
2017-08-28T03:32:51.240Z,94.40
2017-08-28T03:35:18.733Z,94.50
2017-08-28T03:37:46.201Z,94.40
2017-08-28T03:40:13.653Z,94.50
2017-08-28T03:42:41.123Z,94.60
2017-08-28T03:45:08.584Z,94.60
2017-08-28T03:47:36.140Z,94.70
2017-08-28T03:50:03.629Z,94.90
2017-08-28T03:52:31.084Z,94.90
2017-08-28T03:54:58.540Z,95.00
2017-08-28T03:57:26.028Z,95.00
2017-08-28T03:59:53.479Z,95.00
2017-08-28T04:02:20.936Z,95.00
2017-08-28T04:04:48.404Z,95.10
2017-08-28T04:07:15.911Z,95.10
2017-08-28T04:09:43.372Z,95.20
2017-08-28T04:12:10.844Z,95.20
2017-08-28T04:14:38.488Z,95.30
2017-08-28T04:17:05.943Z,95.50
2017-08-28T04:19:33.405Z,95.30
2017-08-28T04:22:00.872Z,95.40
2017-08-28T04:24:28.331Z,95.30
2017-08-28T04:26:56.008Z,95.40
2017-08-28T04:29:23.552Z,95.40
2017-08-28T04:31:51.017Z,95.50
2017-08-28T04:34:18.536Z,95.50
2017-08-28T04:36:45.996Z,95.50
2017-08-28T04:39:13.579Z,95.70
2017-08-28T04:41:41.048Z,95.60
2017-08-28T04:44:08.512Z,95.50
2017-08-28T04:46:36.048Z,95.40
2017-08-28T04:49:04.483Z,95.80
2017-08-28T04:51:31.944Z,95.80
2017-08-28T04:53:59.411Z,95.90
2017-08-28T04:56:26.939Z,96.10
2017-08-28T04:58:54.484Z,96.30
2017-08-28T05:01:22.041Z,96.20
2017-08-28T05:03:50.283Z,96.40
2017-08-28T05:06:18.008Z,96.40
2017-08-28T05:08:45.472Z,96.30
2017-08-28T05:11:13.021Z,96.30
2017-08-28T05:13:41.306Z,96.70
2017-08-28T05:16:08.740Z,96.60
2017-08-28T05:18:36.204Z,96.60
2017-08-28T05:21:03.899Z,96.70
2017-08-28T05:23:31.456Z,96.50
2017-08-28T05:25:59.725Z,96.60
2017-08-28T05:28:28.077Z,96.60
2017-08-28T05:30:55.620Z,96.50
2017-08-28T05:33:23.879Z,96.60
2017-08-28T05:35:51.435Z,96.50
2017-08-28T05:38:19.658Z,96.50
2017-08-28T05:40:47.219Z,96.50
2017-08-28T05:43:14.711Z,96.60
2017-08-28T05:45:42.172Z,96.60
2017-08-28T05:48:09.631Z,96.50
2017-08-28T05:50:37.128Z,96.60
2017-08-28T05:53:04.636Z,96.60
2017-08-28T05:55:32.095Z,96.60
2017-08-28T05:57:59.611Z,96.60
2017-08-28T06:00:27.168Z,96.50
2017-08-28T06:02:54.629Z,96.60
2017-08-28T06:05:22.299Z,96.80
2017-08-28T06:07:49.796Z,96.60
2017-08-28T06:10:17.340Z,96.80
2017-08-28T06:12:44.880Z,96.90
2017-08-28T06:15:12.420Z,96.40
2017-08-28T06:17:40.651Z,95.80
2017-08-28T06:20:08.332Z,95.80
2017-08-28T06:22:36.592Z,95.20
2017-08-28T06:25:04.134Z,94.80
2017-08-28T06:27:31.607Z,94.70
2017-08-28T06:29:59.127Z,94.50
2017-08-28T06:32:26.660Z,94.40
2017-08-28T06:34:54.208Z,94.10
2017-08-28T06:37:21.671Z,93.90
2017-08-28T06:39:49.183Z,94.00
2017-08-28T06:42:16.731Z,93.70
2017-08-28T06:44:44.280Z,93.90
2017-08-28T06:47:11.818Z,93.80
2017-08-28T06:49:39.364Z,93.40
2017-08-28T06:52:07.008Z,93.40
2017-08-28T06:54:34.552Z,93.60
2017-08-28T06:57:02.016Z,93.50
2017-08-28T06:59:29.543Z,94.00
2017-08-28T07:01:57.761Z,92.50
2017-08-28T07:04:25.361Z,92.50
2017-08-28T07:06:52.816Z,92.60
2017-08-28T07:09:20.328Z,92.10
2017-08-28T07:11:47.803Z,92.20
2017-08-28T07:14:15.307Z,92.90
2017-08-28T07:16:42.768Z,91.80
2017-08-28T07:19:10.495Z,91.50
2017-08-28T07:21:38.064Z,91.10
2017-08-28T07:24:05.614Z,91.30
2017-08-28T07:26:33.152Z,91.20
2017-08-28T07:29:00.621Z,91.80
2017-08-28T07:31:28.135Z,91.00
2017-08-28T07:34:01.620Z,91.40
2017-08-28T07:36:29.155Z,91.30
2017-08-28T07:38:56.623Z,90.80
2017-08-28T07:41:24.239Z,91.40
2017-08-28T07:43:51.692Z,90.40
2017-08-28T07:46:19.147Z,90.40
2017-08-28T07:48:46.881Z,90.60
2017-08-28T07:51:14.431Z,90.70
2017-08-28T07:53:41.890Z,90.50
2017-08-28T07:56:09.404Z,90.70
2017-08-28T07:58:36.947Z,90.20
2017-08-28T08:01:04.492Z,89.50
2017-08-28T08:03:32.243Z,89.70
2017-08-28T08:05:59.700Z,90.90
2017-08-28T08:08:27.152Z,90.50
2017-08-28T08:10:54.768Z,90.30
2017-08-28T08:13:22.282Z,89.50
2017-08-28T08:15:49.735Z,89.70
2017-08-28T08:18:17.296Z,88.00
2017-08-28T08:20:44.855Z,88.30
2017-08-28T08:23:12.313Z,89.00
2017-08-28T08:25:39.840Z,88.00
2017-08-28T08:28:07.296Z,86.70
2017-08-28T08:30:35.526Z,87.00
2017-08-28T08:33:02.976Z,87.00
2017-08-28T08:35:30.463Z,83.80
2017-08-28T08:37:57.915Z,85.50
2017-08-28T08:40:25.375Z,85.60
2017-08-28T08:42:52.844Z,85.40
2017-08-28T08:45:20.601Z,87.40
2017-08-28T08:47:48.140Z,83.70
2017-08-28T08:50:15.587Z,84.20
2017-08-28T08:52:43.071Z,84.30
2017-08-28T08:55:10.524Z,83.20
2017-08-28T08:57:37.980Z,82.40
2017-08-28T09:00:05.656Z,83.40
2017-08-28T09:02:33.107Z,83.10
2017-08-28T09:05:00.569Z,82.10
2017-08-28T09:07:28.085Z,82.50
2017-08-28T09:09:55.536Z,78.30
2017-08-28T09:12:23.000Z,76.90
2017-08-28T09:14:51.212Z,76.20
2017-08-28T09:17:18.693Z,76.10
2017-08-28T09:19:46.147Z,75.30
2017-08-28T09:22:13.596Z,73.50
2017-08-28T09:24:41.097Z,75.90
2017-08-28T09:27:08.560Z,75.00
2017-08-28T09:29:36.084Z,73.60
2017-08-28T09:32:03.723Z,70.50
2017-08-28T09:34:31.176Z,69.20
2017-08-28T09:36:58.715Z,69.20
2017-08-28T09:39:26.181Z,66.70
2017-08-28T09:41:54.408Z,67.00
2017-08-28T09:44:21.893Z,66.90
2017-08-28T09:46:49.404Z,68.50
2017-08-28T09:49:16.946Z,69.80
2017-08-28T09:51:44.592Z,64.80
2017-08-28T09:54:12.040Z,64.00
2017-08-28T09:56:39.487Z,65.80
2017-08-28T09:59:07.004Z,60.20
2017-08-28T10:01:34.528Z,62.30
2017-08-28T10:04:01.984Z,61.40
2017-08-28T10:06:29.539Z,61.80
2017-08-28T10:08:57.003Z,62.70
2017-08-28T10:11:24.463Z,60.30
2017-08-28T10:13:51.968Z,61.80
2017-08-28T10:16:19.719Z,57.80
2017-08-28T10:18:47.259Z,58.00
2017-08-28T10:21:14.708Z,56.10
2017-08-28T10:23:42.206Z,57.40
2017-08-28T10:26:09.653Z,57.60
2017-08-28T10:28:37.099Z,59.80
2017-08-28T10:31:04.629Z,57.50
2017-08-28T10:33:32.081Z,55.50
2017-08-28T10:35:59.719Z,53.80
2017-08-28T10:38:27.176Z,55.20
2017-08-28T10:40:54.699Z,54.30
2017-08-28T10:43:23.289Z,55.10
2017-08-28T10:45:50.812Z,54.70
2017-08-28T10:48:18.265Z,52.70
2017-08-28T10:50:45.752Z,52.80
2017-08-28T10:53:17.100Z,50.00
2017-08-28T10:55:44.551Z,50.90
2017-08-28T10:58:12.212Z,50.40
2017-08-28T11:00:39.756Z,50.10
2017-08-28T11:03:07.213Z,50.50
2017-08-28T11:05:34.744Z,51.60
2017-08-28T11:08:02.965Z,52.80
2017-08-28T11:10:30.427Z,52.60
2017-08-28T11:12:57.984Z,52.10
2017-08-28T11:15:25.540Z,48.50
2017-08-28T11:17:53.793Z,50.80
2017-08-28T11:20:21.248Z,50.70
2017-08-28T11:22:48.697Z,49.80
2017-08-28T11:25:16.147Z,45.90
2017-08-28T11:27:43.891Z,43.60
2017-08-28T11:30:11.339Z,42.50
2017-08-28T11:32:38.788Z,43.50
2017-08-28T11:35:06.421Z,41.10
2017-08-28T11:37:33.968Z,37.90
2017-08-28T11:40:01.499Z,38.20
2017-08-28T11:42:29.147Z,34.40
2017-08-28T11:44:56.595Z,32.70
2017-08-28T11:47:24.048Z,31.30
2017-08-28T11:49:51.510Z,29.10
2017-08-28T11:52:18.964Z,28.50
2017-08-28T11:54:46.460Z,28.00
2017-08-28T11:57:14.000Z,27.60
2017-08-28T11:59:41.457Z,27.20
2017-08-28T12:02:08.928Z,26.10
2017-08-28T12:04:36.376Z,25.80
2017-08-28T12:07:03.846Z,25.20
2017-08-28T12:09:31.511Z,24.50
2017-08-28T12:11:58.956Z,23.80
2017-08-28T12:14:26.410Z,24.70
2017-08-28T12:16:53.880Z,24.20
2017-08-28T12:19:21.328Z,24.00
2017-08-28T12:21:48.780Z,22.70
2017-08-28T12:24:16.251Z,22.20
2017-08-28T12:26:43.720Z,22.20
2017-08-28T12:29:11.183Z,22.10
2017-08-28T12:31:38.635Z,21.40
2017-08-28T12:34:06.083Z,21.40
2017-08-28T12:36:33.576Z,21.00
2017-08-28T12:39:01.076Z,20.10
2017-08-28T12:41:28.529Z,19.70
2017-08-28T12:43:55.984Z,20.00
2017-08-28T12:46:23.435Z,20.00
2017-08-28T12:48:50.999Z,21.00
2017-08-28T12:51:18.541Z,20.20
2017-08-28T12:53:46.029Z,21.10
2017-08-28T12:56:13.490Z,20.90
2017-08-28T12:58:40.968Z,20.70
2017-08-28T13:01:08.448Z,20.50
2017-08-28T13:03:36.056Z,20.00
2017-08-28T13:06:03.507Z,19.30
2017-08-28T13:08:31.043Z,20.00
2017-08-28T13:10:58.584Z,19.80
2017-08-28T13:13:26.035Z,19.30
2017-08-28T13:15:53.524Z,19.60
2017-08-28T13:18:21.007Z,19.10
2017-08-28T13:20:48.457Z,19.20
2017-08-28T13:23:16.099Z,19.60
2017-08-28T13:25:43.635Z,19.10
2017-08-28T13:28:11.188Z,17.80
2017-08-28T13:30:38.651Z,18.10
2017-08-28T13:33:06.104Z,17.90
2017-08-28T13:35:33.612Z,18.00
2017-08-28T13:38:01.280Z,17.40
2017-08-28T13:40:28.730Z,17.60
2017-08-28T13:42:56.248Z,17.30
2017-08-28T13:45:23.779Z,18.00
2017-08-28T13:47:51.235Z,17.80
2017-08-28T13:50:18.692Z,18.20
2017-08-28T13:52:46.152Z,17.10
2017-08-28T13:55:13.727Z,17.60
2017-08-28T13:57:41.175Z,18.00
2017-08-28T14:00:08.738Z,17.70
2017-08-28T14:02:36.284Z,18.30
2017-08-28T14:05:03.837Z,18.20
2017-08-28T14:07:31.320Z,18.10
2017-08-28T14:09:58.812Z,18.50
2017-08-28T14:12:26.263Z,18.80
2017-08-28T14:14:53.815Z,17.80
2017-08-28T14:17:21.274Z,17.40
2017-08-28T14:19:48.779Z,17.60
2017-08-28T14:22:16.240Z,16.60
2017-08-28T14:24:43.760Z,17.80
2017-08-28T14:27:11.411Z,17.00
2017-08-28T14:29:38.864Z,16.70
2017-08-28T14:32:06.315Z,16.40
2017-08-28T14:34:33.841Z,16.40
2017-08-28T14:37:01.597Z,17.40
2017-08-28T14:39:29.128Z,16.70
2017-08-28T14:41:56.584Z,16.60
2017-08-28T14:44:24.112Z,15.90
2017-08-28T14:46:51.660Z,16.20
2017-08-28T14:49:19.301Z,16.10
2017-08-28T14:51:46.845Z,16.90
2017-08-28T14:54:14.390Z,16.00
2017-08-28T14:56:41.931Z,17.00
2017-08-28T14:59:09.385Z,16.60
2017-08-28T15:01:36.916Z,15.80
2017-08-28T15:04:04.380Z,16.20
2017-08-28T15:06:31.907Z,16.20
2017-08-28T15:08:59.356Z,16.10
2017-08-28T15:11:27.090Z,16.50
2017-08-28T15:13:54.636Z,16.40
2017-08-28T15:16:22.171Z,16.10
2017-08-28T15:18:49.821Z,15.90
2017-08-28T15:21:17.368Z,16.30
2017-08-28T15:23:44.910Z,16.00
2017-08-28T15:26:12.397Z,15.60
2017-08-28T15:28:39.848Z,15.60
2017-08-28T15:31:07.335Z,15.70
2017-08-28T15:33:34.872Z,16.00
2017-08-28T15:36:02.323Z,15.60
2017-08-28T15:38:29.775Z,16.40
2017-08-28T15:40:57.313Z,15.70
2017-08-28T15:43:24.763Z,15.30
2017-08-28T15:45:52.287Z,16.20
2017-08-28T15:48:19.739Z,16.40
2017-08-28T15:50:47.267Z,16.60
2017-08-28T15:53:14.764Z,16.60
2017-08-28T15:55:42.211Z,16.30
2017-08-28T15:58:09.691Z,16.60
2017-08-28T16:00:37.152Z,16.50
2017-08-28T16:03:04.679Z,16.50
2017-08-28T16:05:32.324Z,17.20
2017-08-28T16:07:59.771Z,17.00
2017-08-28T16:10:27.311Z,17.40
2017-08-28T16:12:54.779Z,17.20
2017-08-28T16:15:22.231Z,17.10
2017-08-28T16:17:49.740Z,18.00
2017-08-28T16:20:17.275Z,18.10
2017-08-28T16:22:44.820Z,18.60
2017-08-28T16:25:12.364Z,17.90
2017-08-28T16:27:39.812Z,17.40
2017-08-28T16:30:07.265Z,18.20
2017-08-28T16:32:35.707Z,17.70
2017-08-28T16:35:03.264Z,17.70
2017-08-28T16:37:30.707Z,18.20
2017-08-28T16:39:59.063Z,19.80
2017-08-28T16:42:26.605Z,19.30
2017-08-28T16:44:54.148Z,19.70
2017-08-28T16:47:21.599Z,20.00
2017-08-28T16:49:49.154Z,20.20
2017-08-28T16:52:16.694Z,20.20
2017-08-28T16:54:44.140Z,20.40
2017-08-28T16:57:11.679Z,20.90
2017-08-28T16:59:39.228Z,20.90
2017-08-28T17:02:06.763Z,21.30
2017-08-28T17:04:34.311Z,21.90
2017-08-28T17:07:01.812Z,21.10
2017-08-28T17:09:29.264Z,21.50
2017-08-28T17:11:56.738Z,22.00
2017-08-28T17:14:24.288Z,22.70
2017-08-28T17:16:51.824Z,23.40
2017-08-28T17:19:19.367Z,24.20
2017-08-28T17:21:46.896Z,24.40
2017-08-28T17:24:14.452Z,24.50
2017-08-28T17:26:42.200Z,25.30
2017-08-28T17:29:09.659Z,26.40
2017-08-28T17:31:37.183Z,27.10
2017-08-28T17:34:04.730Z,27.80
2017-08-28T17:36:32.279Z,28.50
2017-08-28T17:38:59.739Z,29.20
2017-08-28T17:41:27.187Z,30.30
2017-08-28T17:43:54.663Z,30.40
2017-08-28T17:46:22.183Z,31.90
2017-08-28T17:48:49.800Z,32.90
2017-08-28T17:51:17.357Z,33.90
2017-08-28T17:53:44.883Z,36.40
2017-08-28T17:56:12.341Z,36.00
2017-08-28T17:58:39.876Z,37.20
2017-08-28T18:01:07.422Z,37.40
2017-08-28T18:03:34.964Z,37.90
2017-08-28T18:06:02.504Z,38.60
2017-08-28T18:08:29.972Z,39.00
2017-08-28T18:10:57.484Z,40.00
2017-08-28T18:13:24.956Z,40.40
2017-08-28T18:15:52.445Z,41.60
2017-08-28T18:18:19.895Z,41.70
2017-08-28T18:20:47.347Z,42.40
2017-08-28T18:23:14.799Z,42.80
2017-08-28T18:25:42.256Z,43.40
2017-08-28T18:28:09.887Z,44.00
2017-08-28T18:30:38.144Z,44.10
2017-08-28T18:33:05.684Z,45.10
2017-08-28T18:35:33.336Z,44.90
2017-08-28T18:38:00.791Z,45.40
2017-08-28T18:40:28.243Z,45.70
2017-08-28T18:42:55.748Z,46.20
2017-08-28T18:45:23.208Z,47.00
2017-08-28T18:47:50.656Z,47.20
2017-08-28T18:50:18.896Z,47.60
2017-08-28T18:52:46.357Z,47.50
2017-08-28T18:55:13.813Z,48.30
2017-08-28T18:57:41.320Z,48.80
2017-08-28T19:00:08.868Z,49.10
2017-08-28T19:02:36.320Z,49.10
2017-08-28T19:05:03.768Z,50.60
2017-08-28T19:07:31.227Z,50.50
2017-08-28T19:09:58.737Z,50.60
2017-08-28T19:12:26.188Z,50.50
2017-08-28T19:14:53.645Z,51.10
2017-08-28T19:17:21.124Z,51.10
2017-08-28T19:19:48.575Z,51.50
2017-08-28T19:22:16.033Z,51.80
2017-08-28T19:24:43.584Z,52.30
2017-08-28T19:27:11.031Z,52.50
2017-08-28T19:29:38.483Z,52.90
2017-08-28T19:32:06.020Z,53.00
2017-08-28T19:34:36.008Z,53.40
2017-08-28T19:37:03.556Z,53.40
2017-08-28T19:39:31.115Z,53.70
2017-08-28T19:41:58.638Z,54.10
2017-08-28T19:44:26.124Z,54.50
2017-08-28T19:46:53.792Z,54.60
2017-08-28T19:49:21.275Z,55.00
2017-08-28T19:51:48.723Z,55.40
2017-08-28T19:54:17.072Z,56.20
2017-08-28T19:56:44.527Z,56.10
2017-08-28T19:59:12.061Z,56.00
2017-08-28T20:01:41.344Z,56.00
2017-08-28T20:04:08.993Z,56.40
2017-08-28T20:06:36.449Z,56.60
2017-08-28T20:09:03.912Z,56.80
2017-08-28T20:11:31.411Z,57.80
2017-08-28T20:13:58.955Z,58.60
2017-08-28T20:16:26.404Z,59.30
2017-08-28T20:18:53.886Z,59.70
2017-08-28T20:21:21.345Z,59.20
2017-08-28T20:23:48.791Z,59.60
2017-08-28T20:26:16.269Z,59.70
2017-08-28T20:28:43.723Z,59.90
2017-08-28T20:31:11.781Z,59.80
2017-08-28T20:33:39.439Z,60.00
2017-08-28T20:36:06.951Z,59.60
2017-08-28T20:38:34.404Z,59.90
2017-08-28T20:41:01.892Z,60.70
2017-08-28T20:43:29.406Z,60.50
2017-08-28T20:45:56.928Z,60.80
2017-08-28T20:48:25.218Z,61.40
2017-08-28T20:50:58.394Z,60.00
2017-08-28T20:53:27.401Z,60.50
2017-08-28T20:55:55.380Z,60.30
2017-08-28T20:58:23.115Z,60.80
2017-08-28T21:00:50.572Z,61.50
2017-08-28T21:03:18.224Z,60.70
2017-08-28T21:05:45.696Z,60.30
2017-08-28T21:08:13.147Z,60.50
2017-08-28T21:10:41.586Z,61.60
2017-08-28T21:13:09.116Z,63.10
2017-08-28T21:15:36.668Z,63.10
2017-08-28T21:18:04.151Z,63.10
2017-08-28T21:20:31.612Z,63.90
2017-08-28T21:22:59.079Z,64.50
2017-08-28T21:25:26.636Z,65.60
2017-08-28T21:27:54.172Z,65.70
2017-08-28T21:30:21.733Z,65.70
2017-08-28T21:32:49.239Z,65.30
2017-08-28T21:35:16.715Z,66.50
2017-08-28T21:37:44.167Z,66.60
2017-08-28T21:40:11.693Z,67.20
2017-08-28T21:42:39.911Z,68.90
2017-08-28T21:45:07.362Z,68.00
2017-08-28T21:47:35.031Z,68.40
2017-08-28T21:50:02.575Z,68.50
2017-08-28T21:52:30.038Z,68.90
2017-08-28T21:54:58.484Z,70.00
2017-08-28T21:57:26.028Z,70.00
2017-08-28T21:59:53.567Z,70.80
2017-08-28T22:02:21.116Z,71.20
2017-08-28T22:04:48.575Z,71.40
2017-08-28T22:07:16.104Z,71.00
2017-08-28T22:09:43.611Z,71.40
2017-08-28T22:12:11.095Z,71.10
2017-08-28T22:14:38.548Z,71.10
2017-08-28T22:17:06.983Z,71.60
2017-08-28T22:19:34.438Z,71.60
2017-08-28T22:22:01.925Z,71.60
2017-08-28T22:24:29.377Z,72.50
2017-08-28T22:26:56.843Z,72.90
2017-08-28T22:29:24.396Z,72.80
2017-08-28T22:31:51.844Z,72.60
2017-08-28T22:34:19.394Z,73.20
2017-08-28T22:36:46.924Z,73.90
2017-08-28T22:39:14.375Z,73.40
2017-08-28T22:41:41.860Z,73.90
2017-08-28T22:44:09.307Z,74.50
2017-08-28T22:46:36.791Z,73.70
2017-08-28T22:49:04.336Z,74.10
2017-08-28T22:51:31.881Z,73.70
2017-08-28T22:53:59.415Z,73.40
2017-08-28T22:56:26.969Z,73.80
2017-08-28T22:58:54.508Z,74.90
2017-08-28T23:01:22.060Z,75.30
2017-08-28T23:03:49.512Z,75.40
2017-08-28T23:06:16.963Z,76.50
2017-08-28T23:08:44.480Z,76.20
2017-08-28T23:11:11.927Z,76.20
2017-08-28T23:13:39.468Z,76.50
2017-08-28T23:16:06.919Z,76.90
2017-08-28T23:18:35.175Z,77.40
2017-08-28T23:21:02.716Z,78.10
2017-08-28T23:23:30.252Z,78.60
2017-08-28T23:25:57.703Z,78.20
2017-08-28T23:28:25.235Z,78.60
2017-08-28T23:30:52.778Z,79.20
2017-08-28T23:33:20.247Z,79.50
2017-08-28T23:35:47.764Z,79.20
2017-08-28T23:38:15.234Z,79.30
2017-08-28T23:40:42.718Z,80.30
2017-08-28T23:43:10.193Z,79.90
2017-08-28T23:45:37.642Z,80.00
2017-08-28T23:48:05.896Z,80.80
2017-08-28T23:50:33.348Z,80.70
2017-08-28T23:53:00.805Z,81.00
2017-08-28T23:55:28.319Z,81.90
2017-08-28T23:57:55.860Z,81.60
